Time;durP1;ratioP1;P1;durP2;ratioP2;P2;SDS_P1;SDS_P2;PMS_P1;PMS_P2;Temp;Humidity;BMP_temperature;BMP_pressure;BME280_temperature;BME280_humidity;BME280_pressure;Samples;Min_cycle;Max_cycle;Signal;HPM_P1;HPM_P2
2022/10/26 00:00:11;;;;;;;40.83;22.83;;;12.50;99.90;;;;;;5056337;28;20037;-62
2022/10/26 00:02:39;;;;;;;45.58;24.35;;;12.50;99.90;;;;;;5056336;28;20538;-62
2022/10/26 00:05:05;;;;;;;45.22;24.73;;;12.50;99.90;;;;;;5056388;28;20057;-61
2022/10/26 00:07:31;;;;;;;41.45;23.25;;;12.60;99.90;;;;;;5056510;28;20112;-62
2022/10/26 00:09:57;;;;;;;41.85;24.48;;;12.50;99.90;;;;;;5056668;28;20056;-62
2022/10/26 00:12:23;;;;;;;42.33;24.38;;;12.40;99.90;;;;;;5056328;28;20032;-62
2022/10/26 00:14:49;;;;;;;43.90;24.77;;;12.30;99.90;;;;;;5056262;28;20033;-62
2022/10/26 00:17:15;;;;;;;47.47;25.75;;;12.20;99.90;;;;;;5055511;28;20036;-62
2022/10/26 00:19:41;;;;;;;48.47;26.83;;;12.20;99.90;;;;;;5056060;28;20088;-62
2022/10/26 00:22:06;;;;;;;44.67;25.90;;;12.20;99.90;;;;;;5056004;28;20104;-62
2022/10/26 00:24:32;;;;;;;43.25;26.52;;;12.20;99.90;;;;;;5056084;28;20561;-62
2022/10/26 00:26:58;;;;;;;46.42;26.90;;;12.10;99.90;;;;;;5056133;28;20529;-62
2022/10/26 00:29:24;;;;;;;53.13;27.27;;;12.10;99.90;;;;;;5038335;28;20112;-62
2022/10/26 00:31:50;;;;;;;54.45;28.98;;;12.00;99.90;;;;;;5055987;28;20029;-62
2022/10/26 00:34:16;;;;;;;51.30;28.23;;;12.00;99.90;;;;;;5055771;28;20123;-62
2022/10/26 00:36:42;;;;;;;54.22;29.75;;;12.00;99.90;;;;;;5056068;28;20028;-62
2022/10/26 00:39:12;;;;;;;52.65;30.10;;;11.90;99.90;;;;;;5055649;28;20432;-62
2022/10/26 00:41:38;;;;;;;50.13;29.00;;;11.90;99.90;;;;;;5055932;28;20025;-62
2022/10/26 00:44:41;;;;;;;48.05;25.80;;;11.80;99.90;;;;;;5055911;28;20025;-62
2022/10/26 00:47:28;;;;;;;48.55;27.27;;;11.80;99.90;;;;;;5055707;28;20398;-62
2022/10/26 00:49:56;;;;;;;45.38;25.77;;;11.80;99.90;;;;;;5055757;28;20462;-62
2022/10/26 00:52:23;;;;;;;49.90;26.23;;;11.80;99.90;;;;;;5055793;28;20032;-62
2022/10/26 00:54:49;;;;;;;46.95;25.52;;;11.90;99.90;;;;;;5055581;28;20747;-62
2022/10/26 00:57:16;;;;;;;48.78;26.85;;;11.90;99.90;;;;;;5055636;28;20029;-62
2022/10/26 00:59:44;;;;;;;44.33;26.17;;;11.90;99.90;;;;;;5055461;28;20406;-62
2022/10/26 01:02:11;;;;;;;47.13;26.92;;;11.90;99.90;;;;;;5055413;28;20116;-62
2022/10/26 01:04:37;;;;;;;49.42;27.45;;;11.80;99.90;;;;;;5055449;28;20474;-62
2022/10/26 01:07:04;;;;;;;45.05;25.48;;;11.70;99.90;;;;;;5055410;28;20036;-62
2022/10/26 01:09:31;;;;;;;47.22;26.60;;;11.70;99.90;;;;;;5055286;28;20087;-62
2022/10/26 01:11:57;;;;;;;41.35;24.60;;;11.80;99.90;;;;;;5055558;28;20082;-62
2022/10/26 01:14:26;;;;;;;42.22;25.15;;;11.90;99.90;;;;;;5055212;28;20482;-62
2022/10/26 01:17:00;;;;;;;48.00;25.27;;;11.90;99.90;;;;;;5055086;28;20561;-62
2022/10/26 01:19:57;;;;;;;44.08;24.85;;;11.90;99.90;;;;;;5055092;28;20058;-62
2022/10/26 01:22:32;;;;;;;46.95;26.08;;;11.90;99.90;;;;;;5055220;28;20028;-62
2022/10/26 01:25:11;;;;;;;46.55;24.90;;;11.90;99.90;;;;;;5054838;28;20021;-62
2022/10/26 01:27:46;;;;;;;48.00;24.98;;;11.90;99.90;;;;;;5055026;28;20111;-62
2022/10/26 01:30:14;;;;;;;41.97;23.33;;;11.90;99.90;;;;;;5055129;28;20120;-62
2022/10/26 01:32:59;;;;;;;40.78;23.27;;;11.90;99.90;;;;;;5054654;28;20029;-62
2022/10/26 01:35:47;;;;;;;43.30;23.25;;;11.90;99.90;;;;;;5036897;28;20029;-62
2022/10/26 01:38:53;;;;;;;39.20;21.55;;;11.70;99.90;;;;;;5036940;28;20056;-62
2022/10/26 01:41:30;;;;;;;39.53;22.40;;;11.70;99.90;;;;;;5054851;28;20040;-62
2022/10/26 01:44:03;;;;;;;45.53;22.38;;;11.70;99.90;;;;;;5054694;28;20115;-62
2022/10/26 01:46:35;;;;;;;38.95;22.38;;;11.70;99.90;;;;;;5054710;28;20025;-62
2022/10/26 01:49:06;;;;;;;46.65;24.50;;;11.60;99.90;;;;;;5054626;28;20025;-62
2022/10/26 01:51:34;;;;;;;48.67;25.85;;;11.70;99.90;;;;;;5054636;28;20538;-62
2022/10/26 01:54:00;;;;;;;49.08;25.15;;;11.50;99.90;;;;;;5054553;28;20506;-62
2022/10/26 01:56:30;;;;;;;41.90;24.75;;;11.50;99.90;;;;;;5054543;28;20033;-62
2022/10/26 01:59:29;;;;;;;46.67;24.95;;;11.50;99.90;;;;;;5054438;28;20475;-62
2022/10/26 02:02:29;;;;;;;45.42;24.10;;;11.50;99.90;;;;;;5054283;28;20050;-62
2022/10/26 02:05:19;;;;;;;45.80;23.83;;;11.40;99.90;;;;;;5054613;28;20029;-62
2022/10/26 02:08:10;;;;;;;44.30;23.80;;;11.40;99.90;;;;;;5036689;28;20038;-62
2022/10/26 02:10:44;;;;;;;48.13;22.92;;;11.30;99.90;;;;;;5054443;28;20029;-62
2022/10/26 02:13:19;;;;;;;38.92;20.85;;;11.20;99.90;;;;;;5054253;28;20029;-62
2022/10/26 02:16:09;;;;;;;35.95;20.88;;;11.20;99.90;;;;;;5054414;28;20061;-62
2022/10/26 02:18:57;;;;;;;38.30;21.50;;;11.20;99.90;;;;;;5054288;28;20033;-62
2022/10/26 02:21:28;;;;;;;39.33;21.00;;;11.10;99.90;;;;;;5054343;28;20025;-62
2022/10/26 02:23:57;;;;;;;34.13;20.90;;;11.00;99.90;;;;;;5054187;28;20108;-62
2022/10/26 02:26:26;;;;;;;35.50;21.27;;;11.00;99.90;;;;;;5054344;28;20032;-62
2022/10/26 02:28:56;;;;;;;42.83;23.08;;;11.00;99.90;;;;;;5054175;28;20064;-62
2022/10/26 02:31:24;;;;;;;36.42;20.92;;;11.00;99.90;;;;;;5054205;28;20036;-62
2022/10/26 02:33:51;;;;;;;40.00;19.65;;;11.00;99.90;;;;;;5053924;28;20116;-62
2022/10/26 02:36:24;;;;;;;37.78;20.17;;;11.10;99.90;;;;;;5054136;28;20037;-62
2022/10/26 02:38:52;;;;;;;41.13;20.17;;;11.10;99.90;;;;;;5054704;28;20025;-62
2022/10/26 02:41:20;;;;;;;35.60;19.63;;;11.10;99.90;;;;;;5058035;28;20029;-62
2022/10/26 02:44:29;;;;;;;34.92;17.08;;;11.10;99.90;;;;;;5058122;28;20024;-62
2022/10/26 02:46:55;;;;;;;27.60;16.50;;;11.10;99.90;;;;;;5052908;28;20041;-62
2022/10/26 02:49:21;;;;;;;33.15;18.00;;;11.20;99.90;;;;;;5057985;28;20036;-62
2022/10/26 02:52:15;;;;;;;38.28;19.67;;;11.20;99.90;;;;;;5057932;28;20040;-62
2022/10/26 02:54:58;;;;;;;38.47;19.45;;;11.20;99.90;;;;;;5057988;28;20042;-62
2022/10/26 02:57:32;;;;;;;33.33;18.60;;;11.30;99.90;;;;;;5057993;28;20029;-62
2022/10/26 02:59:58;;;;;;;32.03;19.00;;;11.30;99.90;;;;;;5057501;28;20033;-62
2022/10/26 03:02:25;;;;;;;39.65;19.00;;;11.20;99.90;;;;;;5057758;28;20052;-62
2022/10/26 03:04:52;;;;;;;37.13;19.08;;;11.30;99.90;;;;;;5057729;28;20024;-62
2022/10/26 03:07:22;;;;;;;34.17;18.73;;;11.20;99.90;;;;;;5057625;28;20021;-62
2022/10/26 03:09:49;;;;;;;32.78;19.80;;;11.20;99.90;;;;;;5057478;28;20460;-62
2022/10/26 03:12:15;;;;;;;31.55;17.60;;;11.10;99.90;;;;;;5057652;28;20108;-62
2022/10/26 03:14:41;;;;;;;35.78;18.77;;;11.20;99.90;;;;;;5057512;28;20064;-62
2022/10/26 03:17:07;;;;;;;35.75;18.45;;;11.20;99.90;;;;;;5057437;28;20127;-62
2022/10/26 03:19:33;;;;;;;38.83;18.17;;;11.20;99.90;;;;;;5039578;28;20032;-62
2022/10/26 03:21:58;;;;;;;37.85;18.80;;;11.10;99.90;;;;;;5057816;28;20033;-62
2022/10/26 03:24:24;;;;;;;29.50;16.00;;;11.30;99.90;;;;;;5057601;28;20418;-62
2022/10/26 03:26:50;;;;;;;32.15;17.02;;;11.30;99.90;;;;;;5057395;28;20479;-62
2022/10/26 03:29:16;;;;;;;37.55;17.73;;;11.30;99.90;;;;;;5057255;28;20033;-62
2022/10/26 03:31:42;;;;;;;30.65;16.23;;;11.10;99.90;;;;;;5057227;28;20370;-62
2022/10/26 03:34:08;;;;;;;32.75;15.85;;;11.00;99.90;;;;;;5056996;28;20057;-62
2022/10/26 03:36:34;;;;;;;39.55;17.05;;;10.90;99.90;;;;;;5056897;28;20033;-62
2022/10/26 03:38:59;;;;;;;35.55;16.52;;;10.80;99.90;;;;;;5057011;28;20037;-62
2022/10/26 03:41:25;;;;;;;26.13;14.70;;;10.80;99.90;;;;;;5056988;28;20021;-62
2022/10/26 03:43:51;;;;;;;27.65;15.85;;;10.60;99.90;;;;;;5056914;28;20021;-62
2022/10/26 03:46:17;;;;;;;25.92;14.63;;;10.60;99.90;;;;;;5056979;28;20068;-63
2022/10/26 03:48:43;;;;;;;29.10;15.73;;;10.50;99.90;;;;;;5056929;28;20029;-62
2022/10/26 03:51:09;;;;;;;30.25;15.95;;;10.40;99.90;;;;;;5055594;28;20067;-62
2022/10/26 03:53:35;;;;;;;29.02;13.82;;;10.40;99.90;;;;;;5056741;28;20040;-62
2022/10/26 03:56:01;;;;;;;23.63;13.45;;;10.50;99.90;;;;;;5056721;28;20493;-62
2022/10/26 03:58:26;;;;;;;30.42;15.23;;;10.50;99.90;;;;;;5038805;28;20048;-62
2022/10/26 04:00:52;;;;;;;31.88;15.30;;;10.50;99.90;;;;;;5056475;28;20094;-62
2022/10/26 04:03:18;;;;;;;30.65;14.68;;;10.40;99.90;;;;;;5056419;28;20028;-62
2022/10/26 04:05:44;;;;;;;27.70;14.68;;;10.30;99.90;;;;;;5056691;28;20470;-62
2022/10/26 04:08:10;;;;;;;29.58;14.25;;;10.30;99.90;;;;;;5056515;28;20028;-62
2022/10/26 04:10:36;;;;;;;26.17;13.98;;;10.20;99.90;;;;;;5056445;28;20143;-62
2022/10/26 04:13:02;;;;;;;31.92;14.02;;;10.20;99.90;;;;;;5056579;28;20021;-62
2022/10/26 04:15:28;;;;;;;27.17;12.65;;;10.10;99.90;;;;;;5056569;28;20104;-62
2022/10/26 04:17:57;;;;;;;25.23;12.90;;;10.10;99.90;;;;;;5056366;28;20025;-62
2022/10/26 04:20:24;;;;;;;22.98;12.82;;;10.00;99.90;;;;;;5038538;28;20029;-62
2022/10/26 04:23:01;;;;;;;21.70;12.13;;;10.00;99.90;;;;;;5056208;28;20048;-62
2022/10/26 04:25:29;;;;;;;20.85;11.80;;;10.00;99.90;;;;;;5056241;28;20092;-62
2022/10/26 04:27:55;;;;;;;24.95;12.30;;;9.90;99.90;;;;;;5056202;28;20017;-62
2022/10/26 04:30:21;;;;;;;25.73;11.93;;;9.90;99.90;;;;;;5055998;28;20031;-63
2022/10/26 04:32:47;;;;;;;26.40;12.95;;;9.90;99.90;;;;;;5050691;28;20116;-62
2022/10/26 04:35:13;;;;;;;25.58;12.25;;;9.80;99.90;;;;;;5055921;28;20060;-62
2022/10/26 04:37:40;;;;;;;24.60;10.95;;;9.80;99.90;;;;;;5055858;28;20020;-62
2022/10/26 04:40:06;;;;;;;25.23;11.68;;;9.80;99.90;;;;;;5055711;28;20086;-62
2022/10/26 04:42:42;;;;;;;31.70;14.60;;;9.80;99.90;;;;;;5055806;28;20123;-62
2022/10/26 04:45:09;;;;;;;28.40;13.02;;;9.80;99.90;;;;;;5055967;28;20084;-62
2022/10/26 04:47:35;;;;;;;27.45;13.63;;;9.80;99.90;;;;;;5055791;28;20021;-62
2022/10/26 04:50:00;;;;;;;37.95;15.88;;;9.80;99.90;;;;;;5055560;28;20029;-62
2022/10/26 04:52:26;;;;;;;57.80;19.55;;;9.80;99.90;;;;;;5055653;28;20109;-62
2022/10/26 04:54:52;;;;;;;35.03;14.63;;;9.90;99.90;;;;;;5055355;28;20040;-62
2022/10/26 04:57:18;;;;;;;40.72;15.00;;;10.00;99.90;;;;;;5055458;28;20033;-62
2022/10/26 04:59:44;;;;;;;39.78;14.80;;;10.00;99.90;;;;;;5055186;28;20060;-62
2022/10/26 05:02:10;;;;;;;31.95;14.80;;;10.00;99.90;;;;;;5054958;28;20074;-62
2022/10/26 05:04:36;;;;;;;37.75;16.10;;;9.90;99.90;;;;;;5055659;28;20033;-62
2022/10/26 05:07:01;;;;;;;40.60;14.23;;;9.80;99.90;;;;;;5055359;28;20033;-62
2022/10/26 05:09:27;;;;;;;30.83;13.50;;;9.70;99.90;;;;;;5055417;28;20029;-62
2022/10/26 05:11:53;;;;;;;35.67;13.40;;;9.60;99.90;;;;;;5037448;28;20390;-62
2022/10/26 05:14:19;;;;;;;45.90;15.07;;;9.60;99.90;;;;;;5055115;28;20028;-62
2022/10/26 05:16:45;;;;;;;41.90;16.08;;;9.80;99.90;;;;;;5052441;28;20069;-62
2022/10/26 05:19:11;;;;;;;28.90;13.98;;;9.70;99.90;;;;;;5045581;28;20060;-62
2022/10/26 05:21:37;;;;;;;33.72;15.23;;;9.60;99.90;;;;;;5043813;28;20024;-62
2022/10/26 05:24:03;;;;;;;39.08;19.17;;;9.50;99.90;;;;;;5050464;28;20083;-62
2022/10/26 05:26:29;;;;;;;48.40;28.50;;;9.40;99.90;;;;;;5053797;28;20030;-62
2022/10/26 05:28:55;;;;;;;40.00;17.50;;;9.50;99.90;;;;;;5037026;28;20064;-62
2022/10/26 05:31:21;;;;;;;34.83;15.57;;;9.50;99.90;;;;;;5053801;28;20033;-62
2022/10/26 05:33:50;;;;;;;42.03;17.33;;;9.60;99.90;;;;;;5054049;28;20036;-62
2022/10/26 05:36:17;;;;;;;29.95;16.95;;;9.50;99.90;;;;;;5052640;28;20035;-62
2022/10/26 05:38:44;;;;;;;38.38;14.20;;;9.50;99.90;;;;;;5054484;28;20060;-62
2022/10/26 05:41:10;;;;;;;32.15;13.68;;;9.50;99.90;;;;;;5053068;28;20418;-62
2022/10/26 05:43:36;;;;;;;22.65;11.57;;;9.60;99.90;;;;;;5054442;28;20033;-62
2022/10/26 05:46:02;;;;;;;20.90;10.80;;;9.90;99.90;;;;;;5054284;28;20087;-62
2022/10/26 05:48:28;;;;;;;24.67;11.07;;;10.10;99.90;;;;;;5054138;28;20064;-62
2022/10/26 05:50:59;;;;;;;28.02;11.77;;;10.40;99.90;;;;;;5047655;28;20025;-62
2022/10/26 05:53:27;;;;;;;47.15;17.45;;;11.00;99.90;;;;;;5048583;28;20051;-62
2022/10/26 05:55:55;;;;;;;43.35;18.35;;;11.50;99.90;;;;;;5045536;28;20022;-62
2022/10/26 05:58:21;;;;;;;39.35;18.33;;;11.90;99.90;;;;;;5051276;28;20024;-62
2022/10/26 06:00:59;;;;;;;41.65;19.98;;;12.40;99.90;;;;;;5053334;28;20115;-63
2022/10/26 06:03:53;;;;;;;48.13;21.33;;;13.00;99.90;;;;;;5049471;28;20029;-63
2022/10/26 06:06:21;;;;;;;46.22;18.95;;;13.70;99.90;;;;;;5034064;28;20064;-63
2022/10/26 06:08:53;;;;;;;43.35;18.30;;;14.20;99.90;;;;;;5053689;28;20097;-62
2022/10/26 06:11:26;;;;;;;53.80;26.25;;;14.50;99.90;;;;;;5052456;28;20028;-63
2022/10/26 06:13:53;;;;;;;56.90;25.50;;;15.30;99.90;;;;;;5044531;28;20032;-63
2022/10/26 06:16:33;;;;;;;39.03;18.67;;;15.60;99.90;;;;;;5044867;28;20033;-63
2022/10/26 06:19:05;;;;;;;38.35;15.32;;;16.40;99.90;;;;;;5053801;28;20037;-63
2022/10/26 06:21:42;;;;;;;37.72;15.77;;;16.50;99.90;;;;;;5045821;28;20052;-63
2022/10/26 06:24:26;;;;;;;49.90;15.88;;;16.80;99.60;;;;;;5054010;28;20375;-63
2022/10/26 06:27:10;;;;;;;38.40;14.93;;;17.50;95.20;;;;;;5054755;28;20051;-63
2022/10/26 06:30:00;;;;;;;50.13;16.17;;;17.80;95.50;;;;;;5053926;28;20031;-63
2022/10/26 06:32:26;;;;;;;35.20;15.98;;;18.50;91.80;;;;;;5035318;28;20029;-63
2022/10/26 06:35:13;;;;;;;40.25;14.75;;;18.20;91.40;;;;;;5053877;28;20466;-63
2022/10/26 06:37:43;;;;;;;47.97;15.18;;;18.30;91.40;;;;;;5050730;28;20029;-63
2022/10/26 06:40:11;;;;;;;31.48;12.88;;;18.00;93.50;;;;;;5049599;28;20060;-63
2022/10/26 06:42:37;;;;;;;29.27;13.68;;;18.80;90.70;;;;;;5053106;28;20108;-63
2022/10/26 06:45:04;;;;;;;31.10;15.18;;;18.90;89.50;;;;;;5054333;28;20033;-63
2022/10/26 06:47:42;;;;;;;35.65;14.60;;;18.70;90.40;;;;;;5053475;28;20037;-63
2022/10/26 06:50:31;;;;;;;32.70;15.77;;;18.90;88.00;;;;;;5053211;28;20410;-63
2022/10/26 06:53:02;;;;;;;41.45;18.27;;;18.90;88.40;;;;;;5050644;28;20025;-63
2022/10/26 06:55:36;;;;;;;49.92;23.23;;;18.80;87.40;;;;;;5053039;28;20108;-63
2022/10/26 06:58:03;;;;;;;48.70;20.45;;;18.10;89.80;;;;;;5049062;28;20080;-63
2022/10/26 07:00:30;;;;;;;44.55;22.27;;;18.50;88.10;;;;;;5045667;28;20045;-63
2022/10/26 07:02:57;;;;;;;45.72;21.77;;;18.60;88.80;;;;;;5031489;28;20068;-63
2022/10/26 07:05:23;;;;;;;47.28;22.58;;;18.60;89.10;;;;;;5017775;28;20076;-63
2022/10/26 07:07:49;;;;;;;44.38;19.10;;;18.80;90.10;;;;;;5032577;28;20029;-63
2022/10/26 07:10:15;;;;;;;41.90;18.27;;;18.80;88.60;;;;;;5034520;28;20529;-64
2022/10/26 07:12:41;;;;;;;37.97;20.23;;;19.20;90.10;;;;;;5033339;28;20104;-63
2022/10/26 07:15:07;;;;;;;46.47;19.80;;;19.20;87.90;;;;;;5034305;28;20098;-63
2022/10/26 07:17:47;;;;;;;40.00;19.10;;;19.40;85.30;;;;;;5034468;28;20033;-64
2022/10/26 07:20:15;;;;;;;46.47;20.75;;;19.60;85.00;;;;;;5033831;28;20112;-64
2022/10/26 07:22:41;;;;;;;53.10;22.20;;;19.50;84.70;;;;;;5034092;28;20033;-64
2022/10/26 07:25:08;;;;;;;38.40;19.30;;;19.90;85.00;;;;;;5035349;28;20029;-64
2022/10/26 07:27:34;;;;;;;45.08;20.27;;;19.80;84.50;;;;;;5037582;28;20025;-64
2022/10/26 07:30:01;;;;;;;50.25;21.50;;;20.40;81.40;;;;;;5035063;28;20048;-64
2022/10/26 07:32:27;;;;;;;46.90;22.35;;;20.20;80.70;;;;;;5032982;28;20434;-64
2022/10/26 07:34:53;;;;;;;43.20;21.77;;;20.50;81.70;;;;;;5036039;28;20040;-64
2022/10/26 07:37:19;;;;;;;54.53;23.15;;;20.50;80.30;;;;;;5037015;28;20025;-64
2022/10/26 07:39:45;;;;;;;49.97;22.35;;;20.50;78.80;;;;;;5036763;28;20383;-64
2022/10/26 07:42:11;;;;;;;39.60;17.75;;;20.60;79.60;;;;;;5036824;28;20026;-64
2022/10/26 07:44:36;;;;;;;40.88;16.45;;;20.70;80.30;;;;;;5036729;28;20025;-64
2022/10/26 07:47:02;;;;;;;34.10;16.60;;;21.00;80.90;;;;;;5036560;28;20029;-64
2022/10/26 07:49:28;;;;;;;36.78;17.73;;;20.90;79.60;;;;;;5035884;28;20017;-64
2022/10/26 07:51:54;;;;;;;44.25;16.30;;;20.70;80.80;;;;;;5036119;28;20030;-64
2022/10/26 07:54:20;;;;;;;29.42;15.70;;;20.80;80.60;;;;;;5036533;28;20033;-64
2022/10/26 07:56:49;;;;;;;32.97;15.20;;;20.90;80.60;;;;;;5036294;28;20033;-64
2022/10/26 07:59:16;;;;;;;27.67;15.30;;;21.30;80.40;;;;;;5036291;28;20026;-64
2022/10/26 08:01:42;;;;;;;29.90;14.85;;;21.30;80.00;;;;;;5027707;28;20071;-64
2022/10/26 08:04:08;;;;;;;35.45;15.43;;;22.00;78.50;;;;;;5055711;28;20028;-64
2022/10/26 08:06:34;;;;;;;40.45;15.55;;;22.70;75.80;;;;;;5056412;28;20029;-64
2022/10/26 08:09:00;;;;;;;26.45;13.80;;;23.20;73.10;;;;;;5056314;28;20231;-64
2022/10/26 08:11:26;;;;;;;28.83;14.55;;;23.10;71.00;;;;;;5055122;28;20040;-64
2022/10/26 08:13:53;;;;;;;28.13;15.48;;;22.60;72.10;;;;;;5017831;28;20061;-63
2022/10/26 08:16:20;;;;;;;25.65;15.43;;;22.70;71.40;;;;;;5031973;28;20025;-64
2022/10/26 08:18:48;;;;;;;28.38;16.00;;;22.90;71.90;;;;;;5042639;28;20167;-64
2022/10/26 08:21:14;;;;;;;32.30;16.00;;;22.50;72.80;;;;;;5031199;28;20026;-64
2022/10/26 08:23:40;;;;;;;24.90;14.93;;;22.70;71.70;;;;;;5025746;28;21486;-64
2022/10/26 08:26:10;;;;;;;31.65;16.67;;;22.90;71.40;;;;;;5033215;28;20017;-64
2022/10/26 08:28:37;;;;;;;26.85;16.35;;;23.30;70.60;;;;;;5034800;28;20025;-64
2022/10/26 08:31:03;;;;;;;22.58;15.02;;;23.70;69.80;;;;;;5036407;28;20025;-64
2022/10/26 08:33:29;;;;;;;22.60;12.95;;;24.00;68.70;;;;;;5034196;28;20040;-64
2022/10/26 08:36:00;;;;;;;18.77;13.07;;;23.80;68.10;;;;;;5040164;28;20025;-64
2022/10/26 08:38:29;;;;;;;22.08;12.18;;;24.60;67.00;;;;;;5042923;28;20044;-64
2022/10/26 08:40:56;;;;;;;23.92;14.40;;;24.20;66.00;;;;;;5053814;28;20040;-64
2022/10/26 08:43:28;;;;;;;24.48;14.40;;;24.30;66.80;;;;;;5053651;28;20033;-65
2022/10/26 08:46:03;;;;;;;28.23;16.13;;;24.90;64.70;;;;;;5034824;28;20451;-65
2022/10/26 08:48:38;;;;;;;30.58;15.55;;;25.40;65.10;;;;;;5034807;28;20022;-64
2022/10/26 08:51:23;;;;;;;27.40;14.98;;;25.70;62.50;;;;;;5035243;28;20033;-65
2022/10/26 08:53:59;;;;;;;26.75;14.88;;;26.00;61.50;;;;;;5033649;28;20559;-65
2022/10/26 08:56:38;;;;;;;26.42;16.13;;;25.80;59.40;;;;;;5033277;28;20017;-65
2022/10/26 08:59:27;;;;;;;34.33;15.98;;;26.00;58.90;;;;;;5025344;28;20033;-64
2022/10/26 09:01:53;;;;;;;35.65;16.80;;;25.90;59.60;;;;;;5062684;28;20457;-64
2022/10/26 09:04:26;;;;;;;32.83;17.33;;;26.20;59.10;;;;;;5058935;28;20033;-65
2022/10/26 09:07:24;;;;;;;30.05;17.35;;;26.40;57.90;;;;;;5053977;28;20029;-65
2022/10/26 09:10:10;;;;;;;28.45;15.77;;;26.20;57.80;;;;;;5010861;28;20061;-64
2022/10/26 09:12:46;;;;;;;37.17;17.77;;;26.20;57.80;;;;;;5014403;28;20393;-65
2022/10/26 09:15:32;;;;;;;27.80;16.75;;;26.10;58.10;;;;;;5042962;28;20052;-65
2022/10/26 09:18:10;;;;;;;29.20;15.75;;;25.90;58.50;;;;;;5049739;28;20124;-65
2022/10/26 09:21:01;;;;;;;42.33;18.83;;;26.10;57.40;;;;;;5054156;28;20059;-65
2022/10/26 09:23:58;;;;;;;27.85;16.20;;;25.90;56.90;;;;;;5036288;28;20032;-65
2022/10/26 09:26:53;;;;;;;24.92;15.63;;;26.50;57.90;;;;;;5045745;28;20032;-65
2022/10/26 09:29:27;;;;;;;36.90;19.02;;;27.20;56.40;;;;;;5034495;28;20234;-65
2022/10/26 09:31:56;;;;;;;37.80;17.50;;;27.10;55.00;;;;;;5051544;28;20111;-65
2022/10/26 09:34:41;;;;;;;27.60;17.20;;;27.30;55.00;;;;;;5049551;28;20078;-65
2022/10/26 09:37:24;;;;;;;33.65;17.20;;;27.40;53.60;;;;;;5053969;28;20524;-65
2022/10/26 09:40:11;;;;;;;29.58;17.17;;;28.00;55.60;;;;;;5051578;28;20044;-65
2022/10/26 09:42:58;;;;;;;36.60;18.83;;;28.20;53.60;;;;;;5045747;28;20035;-65
2022/10/26 09:45:34;;;;;;;33.10;17.65;;;27.50;54.20;;;;;;5053448;28;20032;-65
2022/10/26 09:48:09;;;;;;;29.70;16.17;;;27.20;54.50;;;;;;5057629;28;20044;-65
2022/10/26 09:50:38;;;;;;;36.40;16.67;;;27.50;54.20;;;;;;5053647;28;20033;-65
2022/10/26 09:53:04;;;;;;;33.95;15.32;;;27.70;52.60;;;;;;5053089;28;21323;-65
2022/10/26 09:55:35;;;;;;;26.30;16.33;;;27.50;53.60;;;;;;5059307;28;20020;-65
2022/10/26 09:58:05;;;;;;;31.55;15.55;;;27.90;53.00;;;;;;5046673;28;20036;-65
2022/10/26 10:00:33;;;;;;;39.60;16.70;;;28.40;53.40;;;;;;5041867;28;20049;-65
2022/10/26 10:02:59;;;;;;;26.33;14.63;;;28.80;51.10;;;;;;5020431;28;20111;-65
2022/10/26 10:05:33;;;;;;;32.72;16.55;;;29.70;49.60;;;;;;5031489;28;20221;-65
2022/10/26 10:08:17;;;;;;;27.35;15.38;;;29.10;49.90;;;;;;5031552;28;20029;-66
2022/10/26 10:10:54;;;;;;;26.27;15.05;;;29.20;49.50;;;;;;5029919;28;20030;-65
2022/10/26 10:13:22;;;;;;;34.72;14.68;;;29.20;49.90;;;;;;5033599;28;20483;-65
2022/10/26 10:15:54;;;;;;;28.67;14.75;;;29.50;50.10;;;;;;5029275;28;20026;-65
2022/10/26 10:18:22;;;;;;;22.33;13.52;;;29.60;47.70;;;;;;5024504;28;20033;-65
2022/10/26 10:20:54;;;;;;;28.60;14.90;;;30.00;48.90;;;;;;5035768;28;20040;-65
2022/10/26 10:23:54;;;;;;;27.27;13.93;;;30.10;48.20;;;;;;5030876;28;20368;-65
2022/10/26 10:26:20;;;;;;;26.38;15.70;;;30.20;47.90;;;;;;5025969;28;20068;-65
2022/10/26 10:28:57;;;;;;;25.00;13.85;;;30.00;47.80;;;;;;5030505;28;20032;-65
2022/10/26 10:31:29;;;;;;;30.75;13.30;;;30.30;47.90;;;;;;5029407;28;21247;-65
2022/10/26 10:33:55;;;;;;;25.40;12.55;;;30.00;46.20;;;;;;5027197;28;20033;-65
2022/10/26 10:36:30;;;;;;;23.70;13.10;;;29.80;48.20;;;;;;5032731;28;20796;-65
2022/10/26 10:38:56;;;;;;;26.90;13.75;;;29.80;46.80;;;;;;5015027;28;20124;-65
2022/10/26 10:41:35;;;;;;;25.88;13.57;;;29.70;47.20;;;;;;5032647;28;20061;-65
2022/10/26 10:44:12;;;;;;;20.65;12.43;;;29.80;46.60;;;;;;5033946;28;20422;-66
2022/10/26 10:46:42;;;;;;;24.02;12.43;;;30.10;45.40;;;;;;5027691;28;20486;-76
2022/10/26 10:49:22;;;;;;;;;;;30.20;48.10;;;;;;5030635;28;20033;-76
2022/10/26 10:51:52;;;;;;;20.27;11.40;;;30.50;45.60;;;;;;5025780;28;19971;-76
2022/10/26 10:54:33;;;;;;;19.73;10.85;;;30.90;45.40;;;;;;5029719;28;20029;-77
2022/10/26 10:57:29;;;;;;;18.02;9.63;;;29.80;44.80;;;;;;5019784;28;20045;-76
2022/10/26 11:00:13;;;;;;;27.55;13.00;;;29.80;47.60;;;;;;5033392;28;20064;-77
2022/10/26 11:03:13;;;;;;;21.38;11.45;;;29.40;45.80;;;;;;5055399;28;20028;-76
2022/10/26 11:05:46;;;;;;;19.92;9.82;;;29.60;45.40;;;;;;5058642;28;20036;-76
2022/10/26 11:08:41;;;;;;;20.42;10.13;;;30.00;44.70;;;;;;5056165;28;20017;-75
2022/10/26 11:11:16;;;;;;;27.98;11.35;;;30.30;45.40;;;;;;5054925;28;20071;-77
2022/10/26 11:14:10;;;;;;;20.52;9.82;;;30.60;44.00;;;;;;5056648;28;20429;-75
2022/10/26 11:16:43;;;;;;;19.02;9.27;;;29.00;46.00;;;;;;5055655;28;20027;-73
2022/10/26 11:19:49;;;;;;;19.30;10.20;;;30.00;47.50;;;;;;5056035;28;20037;-74
2022/10/26 11:22:21;;;;;;;18.65;9.95;;;30.00;46.50;;;;;;5053061;28;20087;-73
2022/10/26 11:24:58;;;;;;;24.35;10.35;;;29.50;46.50;;;;;;5055763;28;20478;-73
2022/10/26 11:27:46;;;;;;;28.42;12.25;;;30.30;47.90;;;;;;5056423;28;20056;-72
2022/10/26 11:30:20;;;;;;;25.92;12.38;;;30.60;45.10;;;;;;5054728;28;20348;-73
2022/10/26 11:32:55;;;;;;;25.00;11.30;;;31.00;44.00;;;;;;5053991;28;20036;-72
2022/10/26 11:35:30;;;;;;;21.30;11.63;;;30.00;44.10;;;;;;5056754;28;20036;-73
2022/10/26 11:38:20;;;;;;;22.52;11.00;;;29.40;45.60;;;;;;5057131;28;20359;-73
2022/10/26 11:41:05;;;;;;;17.67;10.48;;;29.30;44.50;;;;;;5048223;28;20063;-72
2022/10/26 11:43:49;;;;;;;23.73;10.10;;;28.80;46.80;;;;;;5057501;28;20459;-72
2022/10/26 11:46:36;;;;;;;25.42;11.05;;;29.50;46.10;;;;;;5056818;28;20021;-72
2022/10/26 11:49:28;;;;;;;23.17;10.25;;;30.40;45.90;;;;;;5056065;28;20021;-72
2022/10/26 11:52:00;;;;;;;31.70;10.70;;;31.00;43.70;;;;;;5039473;28;20039;-72
2022/10/26 11:54:43;;;;;;;20.70;10.35;;;31.20;44.40;;;;;;5057372;28;20029;-71
2022/10/26 11:57:10;;;;;;;20.90;10.32;;;31.10;42.70;;;;;;5057267;28;20162;-72
2022/10/26 11:59:42;;;;;;;18.80;9.75;;;31.00;42.70;;;;;;5056104;28;20020;-72
2022/10/26 12:02:23;;;;;;;23.98;10.43;;;29.80;44.90;;;;;;5056186;28;20052;-72
2022/10/26 12:05:07;;;;;;;29.80;10.38;;;30.70;44.00;;;;;;5056001;28;20147;-72
2022/10/26 12:07:37;;;;;;;32.22;10.82;;;31.00;44.20;;;;;;5056346;28;20403;-72
2022/10/26 12:10:09;;;;;;;28.80;10.75;;;31.00;41.30;;;;;;5055403;28;20095;-72
2022/10/26 12:12:41;;;;;;;32.95;10.55;;;30.80;42.00;;;;;;5054290;28;20067;-72
2022/10/26 12:15:32;;;;;;;29.98;9.77;;;30.90;41.60;;;;;;5055021;28;20560;-73
2022/10/26 12:18:16;;;;;;;35.67;11.38;;;31.00;41.10;;;;;;5053429;28;20544;-72
2022/10/26 12:20:53;;;;;;;37.78;11.63;;;30.60;42.10;;;;;;5055836;28;20028;-72
2022/10/26 12:23:22;;;;;;;32.20;10.80;;;30.70;43.00;;;;;;5054169;28;20028;-72
2022/10/26 12:25:48;;;;;;;25.23;10.27;;;30.90;42.40;;;;;;5036611;28;20481;-72
2022/10/26 12:28:36;;;;;;;32.20;10.40;;;30.80;40.80;;;;;;5055862;28;20025;-71
2022/10/26 12:31:39;;;;;;;28.23;9.20;;;31.00;40.80;;;;;;5055868;28;20056;-72
2022/10/26 12:34:14;;;;;;;28.30;10.05;;;31.20;40.00;;;;;;5055525;28;20037;-72
2022/10/26 12:36:55;;;;;;;21.63;8.65;;;30.20;41.30;;;;;;5056678;28;20386;-72
2022/10/26 12:39:27;;;;;;;23.45;7.68;;;30.80;40.50;;;;;;5055475;28;20033;-72
2022/10/26 12:42:16;;;;;;;16.40;6.95;;;30.80;40.40;;;;;;5050843;28;20051;-72
2022/10/26 12:44:44;;;;;;;27.20;8.35;;;31.10;40.20;;;;;;5040097;28;20099;-72
2022/10/26 12:47:31;;;;;;;22.08;7.32;;;30.80;40.80;;;;;;5054232;28;20049;-71
2022/10/26 12:50:06;;;;;;;13.57;7.18;;;30.60;40.40;;;;;;5054526;28;20067;-71
2022/10/26 12:52:51;;;;;;;15.70;7.57;;;30.80;40.40;;;;;;5047881;28;20020;-72
2022/10/26 12:55:45;;;;;;;28.00;8.70;;;30.80;40.50;;;;;;5055506;28;20115;-72